sensor_id;sensor_type;location;lat;lon;timestamp;temperature;humidity
73112;HTU21D;61301;51.956;5.876;2023-03-14T00:00:49;16.37;56.95
73112;HTU21D;61301;51.956;5.876;2023-03-14T00:03:15;16.57;56.32
73112;HTU21D;61301;51.956;5.876;2023-03-14T00:05:41;16.63;56.10
73112;HTU21D;61301;51.956;5.876;2023-03-14T00:08:07;16.64;56.05
73112;HTU21D;61301;51.956;5.876;2023-03-14T00:10:33;16.61;56.06
73112;HTU21D;61301;51.956;5.876;2023-03-14T00:12:59;16.39;56.63
73112;HTU21D;61301;51.956;5.876;2023-03-14T00:15:25;16.29;57.06
73112;HTU21D;61301;51.956;5.876;2023-03-14T00:17:51;16.35;57.10
73112;HTU21D;61301;51.956;5.876;2023-03-14T00:20:17;16.24;57.79
73112;HTU21D;61301;51.956;5.876;2023-03-14T00:22:43;16.21;57.25
73112;HTU21D;61301;51.956;5.876;2023-03-14T00:25:10;15.97;57.96
73112;HTU21D;61301;51.956;5.876;2023-03-14T00:27:36;15.81;58.55
73112;HTU21D;61301;51.956;5.876;2023-03-14T00:30:04;15.77;58.67
73112;HTU21D;61301;51.956;5.876;2023-03-14T00:32:31;15.60;58.63
73112;HTU21D;61301;51.956;5.876;2023-03-14T00:34:57;15.68;58.52
73112;HTU21D;61301;51.956;5.876;2023-03-14T00:37:27;15.56;57.55
73112;HTU21D;61301;51.956;5.876;2023-03-14T00:39:53;15.47;57.45
73112;HTU21D;61301;51.956;5.876;2023-03-14T00:42:18;15.48;56.87
73112;HTU21D;61301;51.956;5.876;2023-03-14T00:44:44;15.34;57.12
73112;HTU21D;61301;51.956;5.876;2023-03-14T00:47:13;15.43;56.94
73112;HTU21D;61301;51.956;5.876;2023-03-14T00:49:42;15.41;56.89
73112;HTU21D;61301;51.956;5.876;2023-03-14T00:52:09;15.36;56.61
73112;HTU21D;61301;51.956;5.876;2023-03-14T00:54:35;15.26;56.77
73112;HTU21D;61301;51.956;5.876;2023-03-14T00:57:01;15.24;56.86
73112;HTU21D;61301;51.956;5.876;2023-03-14T00:59:27;15.36;56.71
73112;HTU21D;61301;51.956;5.876;2023-03-14T01:01:53;15.25;56.84
73112;HTU21D;61301;51.956;5.876;2023-03-14T01:04:19;15.25;57.04
73112;HTU21D;61301;51.956;5.876;2023-03-14T01:06:45;15.32;56.82
73112;HTU21D;61301;51.956;5.876;2023-03-14T01:09:11;15.31;56.85
73112;HTU21D;61301;51.956;5.876;2023-03-14T01:11:37;15.36;56.77
73112;HTU21D;61301;51.956;5.876;2023-03-14T01:14:04;15.33;56.72
73112;HTU21D;61301;51.956;5.876;2023-03-14T01:16:33;15.31;56.53
73112;HTU21D;61301;51.956;5.876;2023-03-14T01:19:01;15.28;56.73
73112;HTU21D;61301;51.956;5.876;2023-03-14T01:21:29;15.44;56.13
73112;HTU21D;61301;51.956;5.876;2023-03-14T01:23:57;15.31;56.29
73112;HTU21D;61301;51.956;5.876;2023-03-14T01:26:26;15.30;55.97
73112;HTU21D;61301;51.956;5.876;2023-03-14T01:28:54;15.22;56.10
73112;HTU21D;61301;51.956;5.876;2023-03-14T01:31:21;15.29;55.85
73112;HTU21D;61301;51.956;5.876;2023-03-14T01:33:48;15.28;55.52
73112;HTU21D;61301;51.956;5.876;2023-03-14T01:36:14;15.17;55.62
73112;HTU21D;61301;51.956;5.876;2023-03-14T01:38:42;15.27;55.52
73112;HTU21D;61301;51.956;5.876;2023-03-14T01:41:16;15.30;55.67
73112;HTU21D;61301;51.956;5.876;2023-03-14T01:43:44;15.21;56.47
73112;HTU21D;61301;51.956;5.876;2023-03-14T01:46:33;15.16;56.74
73112;HTU21D;61301;51.956;5.876;2023-03-14T01:49:15;15.11;56.69
73112;HTU21D;61301;51.956;5.876;2023-03-14T01:54:55;15.15;56.97
73112;HTU21D;61301;51.956;5.876;2023-03-14T01:57:38;15.17;57.19
73112;HTU21D;61301;51.956;5.876;2023-03-14T02:00:22;15.16;57.73
73112;HTU21D;61301;51.956;5.876;2023-03-14T02:02:53;15.17;57.95
73112;HTU21D;61301;51.956;5.876;2023-03-14T02:05:28;15.15;58.87
73112;HTU21D;61301;51.956;5.876;2023-03-14T02:08:10;15.08;59.54
73112;HTU21D;61301;51.956;5.876;2023-03-14T02:10:50;15.13;59.18
73112;HTU21D;61301;51.956;5.876;2023-03-14T02:13:22;15.02;59.70
73112;HTU21D;61301;51.956;5.876;2023-03-14T02:16:16;14.89;60.34
73112;HTU21D;61301;51.956;5.876;2023-03-14T02:19:02;14.70;60.90
73112;HTU21D;61301;51.956;5.876;2023-03-14T02:22:08;14.72;61.28
73112;HTU21D;61301;51.956;5.876;2023-03-14T02:27:26;14.20;63.34
73112;HTU21D;61301;51.956;5.876;2023-03-14T02:29:57;14.05;64.21
73112;HTU21D;61301;51.956;5.876;2023-03-14T02:32:26;14.05;64.19
73112;HTU21D;61301;51.956;5.876;2023-03-14T02:34:56;13.95;64.75
73112;HTU21D;61301;51.956;5.876;2023-03-14T02:37:27;13.83;65.46
73112;HTU21D;61301;51.956;5.876;2023-03-14T02:39:56;13.81;65.56
73112;HTU21D;61301;51.956;5.876;2023-03-14T02:42:23;13.86;65.18
73112;HTU21D;61301;51.956;5.876;2023-03-14T02:47:37;13.74;65.60
73112;HTU21D;61301;51.956;5.876;2023-03-14T02:50:14;13.71;65.66
73112;HTU21D;61301;51.956;5.876;2023-03-14T02:52:41;13.64;65.87
73112;HTU21D;61301;51.956;5.876;2023-03-14T02:55:08;13.75;65.33
73112;HTU21D;61301;51.956;5.876;2023-03-14T02:57:36;13.76;65.13
73112;HTU21D;61301;51.956;5.876;2023-03-14T03:00:03;13.74;64.84
73112;HTU21D;61301;51.956;5.876;2023-03-14T03:02:35;13.78;64.72
73112;HTU21D;61301;51.956;5.876;2023-03-14T03:05:01;13.85;64.35
73112;HTU21D;61301;51.956;5.876;2023-03-14T03:07:27;13.80;64.27
73112;HTU21D;61301;51.956;5.876;2023-03-14T03:09:55;13.74;64.34
73112;HTU21D;61301;51.956;5.876;2023-03-14T03:12:21;13.65;64.60
73112;HTU21D;61301;51.956;5.876;2023-03-14T03:14:48;13.76;64.27
73112;HTU21D;61301;51.956;5.876;2023-03-14T03:17:14;13.71;64.43
73112;HTU21D;61301;51.956;5.876;2023-03-14T03:19:40;13.79;63.99
73112;HTU21D;61301;51.956;5.876;2023-03-14T03:22:07;13.80;63.89
73112;HTU21D;61301;51.956;5.876;2023-03-14T03:24:33;13.74;63.84
73112;HTU21D;61301;51.956;5.876;2023-03-14T03:27:01;13.78;63.69
73112;HTU21D;61301;51.956;5.876;2023-03-14T03:29:27;13.80;63.62
73112;HTU21D;61301;51.956;5.876;2023-03-14T03:31:54;13.82;63.46
73112;HTU21D;61301;51.956;5.876;2023-03-14T03:34:20;13.90;63.10
73112;HTU21D;61301;51.956;5.876;2023-03-14T03:36:49;13.86;62.95
73112;HTU21D;61301;51.956;5.876;2023-03-14T03:39:15;13.90;62.64
73112;HTU21D;61301;51.956;5.876;2023-03-14T03:41:41;13.93;62.38
73112;HTU21D;61301;51.956;5.876;2023-03-14T03:44:09;13.95;62.46
73112;HTU21D;61301;51.956;5.876;2023-03-14T03:46:35;13.95;62.46
73112;HTU21D;61301;51.956;5.876;2023-03-14T03:49:01;13.93;62.55
73112;HTU21D;61301;51.956;5.876;2023-03-14T03:51:28;13.89;62.39
73112;HTU21D;61301;51.956;5.876;2023-03-14T03:53:56;13.95;61.94
73112;HTU21D;61301;51.956;5.876;2023-03-14T03:56:28;13.96;61.80
73112;HTU21D;61301;51.956;5.876;2023-03-14T03:58:54;14.00;61.45
73112;HTU21D;61301;51.956;5.876;2023-03-14T04:01:20;14.12;61.23
73112;HTU21D;61301;51.956;5.876;2023-03-14T04:03:49;14.12;61.15
73112;HTU21D;61301;51.956;5.876;2023-03-14T04:06:15;14.14;60.89
73112;HTU21D;61301;51.956;5.876;2023-03-14T04:08:45;14.17;60.72
73112;HTU21D;61301;51.956;5.876;2023-03-14T04:11:23;14.12;60.92
73112;HTU21D;61301;51.956;5.876;2023-03-14T04:14:16;14.13;60.83
73112;HTU21D;61301;51.956;5.876;2023-03-14T04:16:43;14.12;60.85
73112;HTU21D;61301;51.956;5.876;2023-03-14T04:19:13;14.20;60.44
73112;HTU21D;61301;51.956;5.876;2023-03-14T04:21:40;14.27;60.30
73112;HTU21D;61301;51.956;5.876;2023-03-14T04:24:11;14.20;60.45
73112;HTU21D;61301;51.956;5.876;2023-03-14T04:26:37;14.35;60.15
73112;HTU21D;61301;51.956;5.876;2023-03-14T04:29:04;14.47;59.55
73112;HTU21D;61301;51.956;5.876;2023-03-14T04:31:30;14.35;59.70
73112;HTU21D;61301;51.956;5.876;2023-03-14T04:33:57;14.44;59.65
73112;HTU21D;61301;51.956;5.876;2023-03-14T04:36:36;14.34;59.73
73112;HTU21D;61301;51.956;5.876;2023-03-14T04:39:05;14.39;59.41
73112;HTU21D;61301;51.956;5.876;2023-03-14T04:41:35;14.47;59.12
73112;HTU21D;61301;51.956;5.876;2023-03-14T04:44:01;14.43;59.25
73112;HTU21D;61301;51.956;5.876;2023-03-14T04:46:27;14.44;59.12
73112;HTU21D;61301;51.956;5.876;2023-03-14T04:48:53;14.41;59.16
73112;HTU21D;61301;51.956;5.876;2023-03-14T04:51:19;14.43;59.12
73112;HTU21D;61301;51.956;5.876;2023-03-14T04:53:48;14.48;58.89
73112;HTU21D;61301;51.956;5.876;2023-03-14T04:56:14;14.38;59.06
73112;HTU21D;61301;51.956;5.876;2023-03-14T04:58:42;14.39;59.03
73112;HTU21D;61301;51.956;5.876;2023-03-14T05:01:10;14.43;59.01
73112;HTU21D;61301;51.956;5.876;2023-03-14T05:03:46;14.50;58.90
73112;HTU21D;61301;51.956;5.876;2023-03-14T05:06:30;14.51;58.96
73112;HTU21D;61301;51.956;5.876;2023-03-14T05:09:08;14.52;58.82
73112;HTU21D;61301;51.956;5.876;2023-03-14T05:11:52;14.54;58.81
73112;HTU21D;61301;51.956;5.876;2023-03-14T05:14:18;14.51;58.94
73112;HTU21D;61301;51.956;5.876;2023-03-14T05:17:05;14.32;59.58
73112;HTU21D;61301;51.956;5.876;2023-03-14T05:19:53;14.35;59.70
73112;HTU21D;61301;51.956;5.876;2023-03-14T05:22:45;14.41;59.86
73112;HTU21D;61301;51.956;5.876;2023-03-14T05:25:34;14.39;60.18
73112;HTU21D;61301;51.956;5.876;2023-03-14T05:28:09;14.34;60.69
73112;HTU21D;61301;51.956;5.876;2023-03-14T05:30:46;14.26;60.90
73112;HTU21D;61301;51.956;5.876;2023-03-14T05:33:32;14.12;61.43
73112;HTU21D;61301;51.956;5.876;2023-03-14T05:36:27;14.18;61.47
73112;HTU21D;61301;51.956;5.876;2023-03-14T05:39:01;13.98;62.10
73112;HTU21D;61301;51.956;5.876;2023-03-14T05:41:48;14.07;61.84
73112;HTU21D;61301;51.956;5.876;2023-03-14T05:44:21;14.11;61.73
73112;HTU21D;61301;51.956;5.876;2023-03-14T05:47:12;14.07;61.92
73112;HTU21D;61301;51.956;5.876;2023-03-14T05:49:56;13.94;62.50
73112;HTU21D;61301;51.956;5.876;2023-03-14T05:52:43;13.91;62.86
73112;HTU21D;61301;51.956;5.876;2023-03-14T05:55:28;13.88;63.17
73112;HTU21D;61301;51.956;5.876;2023-03-14T05:58:12;13.83;63.56
73112;HTU21D;61301;51.956;5.876;2023-03-14T06:00:56;13.86;63.47
73112;HTU21D;61301;51.956;5.876;2023-03-14T06:03:37;13.80;63.84
73112;HTU21D;61301;51.956;5.876;2023-03-14T06:06:04;13.91;63.55
73112;HTU21D;61301;51.956;5.876;2023-03-14T06:08:30;13.82;63.96
73112;HTU21D;61301;51.956;5.876;2023-03-14T06:10:57;13.75;64.27
73112;HTU21D;61301;51.956;5.876;2023-03-14T06:13:28;13.74;64.64
73112;HTU21D;61301;51.956;5.876;2023-03-14T06:15:54;13.71;64.82
73112;HTU21D;61301;51.956;5.876;2023-03-14T06:18:20;13.76;64.95
73112;HTU21D;61301;51.956;5.876;2023-03-14T06:20:47;13.67;65.47
73112;HTU21D;61301;51.956;5.876;2023-03-14T06:23:21;13.77;65.33
73112;HTU21D;61301;51.956;5.876;2023-03-14T06:25:47;13.67;65.89
73112;HTU21D;61301;51.956;5.876;2023-03-14T06:28:13;13.69;65.79
73112;HTU21D;61301;51.956;5.876;2023-03-14T06:30:39;13.66;66.10
73112;HTU21D;61301;51.956;5.876;2023-03-14T06:33:08;13.64;66.30
73112;HTU21D;61301;51.956;5.876;2023-03-14T06:35:37;13.68;66.40
73112;HTU21D;61301;51.956;5.876;2023-03-14T06:38:03;13.56;66.83
73112;HTU21D;61301;51.956;5.876;2023-03-14T06:40:29;13.65;66.70
73112;HTU21D;61301;51.956;5.876;2023-03-14T06:43:00;13.67;66.77
73112;HTU21D;61301;51.956;5.876;2023-03-14T06:45:28;13.54;67.24
73112;HTU21D;61301;51.956;5.876;2023-03-14T06:47:56;13.49;67.50
73112;HTU21D;61301;51.956;5.876;2023-03-14T06:50:27;13.52;67.55
73112;HTU21D;61301;51.956;5.876;2023-03-14T06:52:53;13.53;67.61
73112;HTU21D;61301;51.956;5.876;2023-03-14T06:55:26;13.64;67.30
73112;HTU21D;61301;51.956;5.876;2023-03-14T06:57:53;13.60;67.54
73112;HTU21D;61301;51.956;5.876;2023-03-14T07:00:20;13.61;67.70
73112;HTU21D;61301;51.956;5.876;2023-03-14T07:02:46;13.56;67.95
73112;HTU21D;61301;51.956;5.876;2023-03-14T07:05:24;13.61;67.97
73112;HTU21D;61301;51.956;5.876;2023-03-14T07:07:51;13.67;67.78
73112;HTU21D;61301;51.956;5.876;2023-03-14T07:10:17;13.69;67.97
73112;HTU21D;61301;51.956;5.876;2023-03-14T07:12:43;13.73;67.96
73112;HTU21D;61301;51.956;5.876;2023-03-14T07:15:09;13.67;68.05
73112;HTU21D;61301;51.956;5.876;2023-03-14T07:17:35;13.69;68.26
73112;HTU21D;61301;51.956;5.876;2023-03-14T07:20:02;13.70;68.11
73112;HTU21D;61301;51.956;5.876;2023-03-14T07:22:30;13.75;67.96
73112;HTU21D;61301;51.956;5.876;2023-03-14T07:24:56;13.81;67.77
73112;HTU21D;61301;51.956;5.876;2023-03-14T07:27:24;13.78;67.48
73112;HTU21D;61301;51.956;5.876;2023-03-14T07:29:51;13.83;65.21
73112;HTU21D;61301;51.956;5.876;2023-03-14T07:32:18;13.90;64.64
73112;HTU21D;61301;51.956;5.876;2023-03-14T07:34:44;13.99;63.91
73112;HTU21D;61301;51.956;5.876;2023-03-14T07:37:10;13.98;63.50
73112;HTU21D;61301;51.956;5.876;2023-03-14T07:39:36;13.97;63.00
73112;HTU21D;61301;51.956;5.876;2023-03-14T07:42:07;13.90;62.41
73112;HTU21D;61301;51.956;5.876;2023-03-14T07:44:58;13.70;62.27
73112;HTU21D;61301;51.956;5.876;2023-03-14T07:47:24;13.64;62.20
73112;HTU21D;61301;51.956;5.876;2023-03-14T07:49:50;13.62;62.33
73112;HTU21D;61301;51.956;5.876;2023-03-14T07:52:16;13.53;61.86
73112;HTU21D;61301;51.956;5.876;2023-03-14T07:54:42;13.66;61.98
73112;HTU21D;61301;51.956;5.876;2023-03-14T07:57:08;13.52;61.75
73112;HTU21D;61301;51.956;5.876;2023-03-14T07:59:34;13.61;61.99
73112;HTU21D;61301;51.956;5.876;2023-03-14T08:02:00;13.52;61.82
73112;HTU21D;61301;51.956;5.876;2023-03-14T08:04:26;13.50;61.66
73112;HTU21D;61301;51.956;5.876;2023-03-14T08:06:53;13.55;61.66
73112;HTU21D;61301;51.956;5.876;2023-03-14T08:09:20;13.79;61.14
73112;HTU21D;61301;51.956;5.876;2023-03-14T08:11:46;13.58;61.23
73112;HTU21D;61301;51.956;5.876;2023-03-14T08:14:12;13.54;61.57
73112;HTU21D;61301;51.956;5.876;2023-03-14T08:16:38;13.54;61.63
73112;HTU21D;61301;51.956;5.876;2023-03-14T08:19:04;13.59;61.55
73112;HTU21D;61301;51.956;5.876;2023-03-14T08:21:30;13.59;61.25
73112;HTU21D;61301;51.956;5.876;2023-03-14T08:23:56;13.58;61.21
73112;HTU21D;61301;51.956;5.876;2023-03-14T08:26:22;13.58;61.10
73112;HTU21D;61301;51.956;5.876;2023-03-14T08:28:48;13.60;60.85
73112;HTU21D;61301;51.956;5.876;2023-03-14T08:31:14;13.66;60.83
73112;HTU21D;61301;51.956;5.876;2023-03-14T08:33:40;13.71;60.12
73112;HTU21D;61301;51.956;5.876;2023-03-14T08:36:06;13.69;60.31
73112;HTU21D;61301;51.956;5.876;2023-03-14T08:38:32;13.77;59.93
73112;HTU21D;61301;51.956;5.876;2023-03-14T08:41:00;13.82;59.42
73112;HTU21D;61301;51.956;5.876;2023-03-14T08:43:26;13.75;58.93
73112;HTU21D;61301;51.956;5.876;2023-03-14T08:45:53;13.61;57.73
73112;HTU21D;61301;51.956;5.876;2023-03-14T08:48:19;13.44;57.69
73112;HTU21D;61301;51.956;5.876;2023-03-14T08:50:45;13.39;58.09
73112;HTU21D;61301;51.956;5.876;2023-03-14T08:53:12;13.40;58.35
73112;HTU21D;61301;51.956;5.876;2023-03-14T08:55:38;13.32;57.64
73112;HTU21D;61301;51.956;5.876;2023-03-14T08:58:04;13.24;57.92
73112;HTU21D;61301;51.956;5.876;2023-03-14T09:00:30;13.23;57.68
73112;HTU21D;61301;51.956;5.876;2023-03-14T09:02:56;13.22;57.80
73112;HTU21D;61301;51.956;5.876;2023-03-14T09:05:22;13.35;57.53
73112;HTU21D;61301;51.956;5.876;2023-03-14T09:07:48;13.24;56.86
73112;HTU21D;61301;51.956;5.876;2023-03-14T09:10:14;13.20;57.26
73112;HTU21D;61301;51.956;5.876;2023-03-14T09:12:40;13.11;57.46
73112;HTU21D;61301;51.956;5.876;2023-03-14T09:15:06;13.10;57.46
73112;HTU21D;61301;51.956;5.876;2023-03-14T09:17:33;13.07;57.06
73112;HTU21D;61301;51.956;5.876;2023-03-14T09:19:59;13.00;56.61
73112;HTU21D;61301;51.956;5.876;2023-03-14T09:22:25;12.92;57.14
73112;HTU21D;61301;51.956;5.876;2023-03-14T09:24:51;12.95;57.14
73112;HTU21D;61301;51.956;5.876;2023-03-14T09:27:17;12.95;56.55
73112;HTU21D;61301;51.956;5.876;2023-03-14T09:29:43;12.86;56.44
73112;HTU21D;61301;51.956;5.876;2023-03-14T09:32:09;12.91;56.01
73112;HTU21D;61301;51.956;5.876;2023-03-14T09:34:35;12.96;55.79
73112;HTU21D;61301;51.956;5.876;2023-03-14T09:37:01;13.03;55.97
73112;HTU21D;61301;51.956;5.876;2023-03-14T09:39:27;13.16;55.84
73112;HTU21D;61301;51.956;5.876;2023-03-14T09:41:54;13.21;55.92
73112;HTU21D;61301;51.956;5.876;2023-03-14T09:44:37;13.33;55.60
73112;HTU21D;61301;51.956;5.876;2023-03-14T09:47:07;13.30;54.82
73112;HTU21D;61301;51.956;5.876;2023-03-14T09:49:36;13.31;55.02
73112;HTU21D;61301;51.956;5.876;2023-03-14T09:52:15;13.32;54.23
73112;HTU21D;61301;51.956;5.876;2023-03-14T09:54:46;13.27;54.31
73112;HTU21D;61301;51.956;5.876;2023-03-14T09:57:18;13.29;53.53
73112;HTU21D;61301;51.956;5.876;2023-03-14T09:59:46;13.24;53.78
73112;HTU21D;61301;51.956;5.876;2023-03-14T10:02:19;13.32;53.75
73112;HTU21D;61301;51.956;5.876;2023-03-14T10:04:48;13.25;53.77
73112;HTU21D;61301;51.956;5.876;2023-03-14T10:07:19;13.32;53.59
73112;HTU21D;61301;51.956;5.876;2023-03-14T10:09:49;13.22;52.55
73112;HTU21D;61301;51.956;5.876;2023-03-14T10:12:17;13.21;53.55
73112;HTU21D;61301;51.956;5.876;2023-03-14T10:14:50;13.31;53.43
73112;HTU21D;61301;51.956;5.876;2023-03-14T10:17:18;13.31;52.96
73112;HTU21D;61301;51.956;5.876;2023-03-14T10:22:21;13.36;51.61
73112;HTU21D;61301;51.956;5.876;2023-03-14T10:25:04;13.32;51.73
73112;HTU21D;61301;51.956;5.876;2023-03-14T10:27:32;13.34;51.89
73112;HTU21D;61301;51.956;5.876;2023-03-14T10:30:02;13.41;52.30
73112;HTU21D;61301;51.956;5.876;2023-03-14T10:32:35;13.49;51.52
73112;HTU21D;61301;51.956;5.876;2023-03-14T10:37:55;13.35;51.74
73112;HTU21D;61301;51.956;5.876;2023-03-14T10:40:46;13.47;51.46
73112;HTU21D;61301;51.956;5.876;2023-03-14T10:43:19;13.51;51.28
73112;HTU21D;61301;51.956;5.876;2023-03-14T10:48:33;13.61;51.11
73112;HTU21D;61301;51.956;5.876;2023-03-14T10:56:28;13.59;50.49
73112;HTU21D;61301;51.956;5.876;2023-03-14T10:58:58;13.70;50.85
73112;HTU21D;61301;51.956;5.876;2023-03-14T11:01:41;13.67;50.88
73112;HTU21D;61301;51.956;5.876;2023-03-14T11:04:25;13.64;51.43
73112;HTU21D;61301;51.956;5.876;2023-03-14T11:07:26;13.44;51.92
73112;HTU21D;61301;51.956;5.876;2023-03-14T11:10:22;13.27;52.41
73112;HTU21D;61301;51.956;5.876;2023-03-14T11:13:12;13.27;52.85
73112;HTU21D;61301;51.956;5.876;2023-03-14T11:26:25;13.37;52.72
73112;HTU21D;61301;51.956;5.876;2023-03-14T11:28:57;13.31;53.47
73112;HTU21D;61301;51.956;5.876;2023-03-14T11:31:32;13.34;52.96
73112;HTU21D;61301;51.956;5.876;2023-03-14T11:34:23;13.36;52.68
73112;HTU21D;61301;51.956;5.876;2023-03-14T11:39:24;13.44;52.01
73112;HTU21D;61301;51.956;5.876;2023-03-14T11:41:57;13.48;51.72
73112;HTU21D;61301;51.956;5.876;2023-03-14T11:44:25;13.53;51.37
73112;HTU21D;61301;51.956;5.876;2023-03-14T11:46:59;13.59;51.04
73112;HTU21D;61301;51.956;5.876;2023-03-14T11:49:31;13.71;49.39
73112;HTU21D;61301;51.956;5.876;2023-03-14T11:52:28;13.79;49.34
73112;HTU21D;61301;51.956;5.876;2023-03-14T11:57:31;14.11;46.54
73112;HTU21D;61301;51.956;5.876;2023-03-14T12:00:17;14.10;44.71
73112;HTU21D;61301;51.956;5.876;2023-03-14T12:03:03;14.18;44.96
73112;HTU21D;61301;51.956;5.876;2023-03-14T12:08:32;14.36;44.79
73112;HTU21D;61301;51.956;5.876;2023-03-14T12:13:50;14.41;42.90
73112;HTU21D;61301;51.956;5.876;2023-03-14T12:18:46;14.30;42.29
73112;HTU21D;61301;51.956;5.876;2023-03-14T12:21:12;14.26;40.80
73112;HTU21D;61301;51.956;5.876;2023-03-14T12:26:20;14.00;40.75
73112;HTU21D;61301;51.956;5.876;2023-03-14T12:50:38;14.78;36.38
73112;HTU21D;61301;51.956;5.876;2023-03-14T13:02:38;15.18;36.46
73112;HTU21D;61301;51.956;5.876;2023-03-14T13:04:45;15.31;37.82
73112;HTU21D;61301;51.956;5.876;2023-03-14T13:10:30;15.67;37.34
73112;HTU21D;61301;51.956;5.876;2023-03-14T13:15:45;15.77;35.91
73112;HTU21D;61301;51.956;5.876;2023-03-14T13:18:50;15.81;36.37
73112;HTU21D;61301;51.956;5.876;2023-03-14T13:21:25;15.73;35.08
73112;HTU21D;61301;51.956;5.876;2023-03-14T13:24:04;15.75;35.06
73112;HTU21D;61301;51.956;5.876;2023-03-14T13:26:39;15.80;35.59
73112;HTU21D;61301;51.956;5.876;2023-03-14T13:29:21;15.89;35.72
73112;HTU21D;61301;51.956;5.876;2023-03-14T13:31:50;15.81;34.12
73112;HTU21D;61301;51.956;5.876;2023-03-14T13:34:17;15.84;35.24
73112;HTU21D;61301;51.956;5.876;2023-03-14T13:36:43;15.92;35.28
73112;HTU21D;61301;51.956;5.876;2023-03-14T13:39:16;16.06;34.54
73112;HTU21D;61301;51.956;5.876;2023-03-14T13:41:43;15.71;31.92
73112;HTU21D;61301;51.956;5.876;2023-03-14T13:44:18;15.62;31.28
73112;HTU21D;61301;51.956;5.876;2023-03-14T13:46:46;15.52;33.00
73112;HTU21D;61301;51.956;5.876;2023-03-14T13:49:21;15.63;34.60
73112;HTU21D;61301;51.956;5.876;2023-03-14T13:51:48;15.39;33.25
73112;HTU21D;61301;51.956;5.876;2023-03-14T13:54:19;15.46;33.37
73112;HTU21D;61301;51.956;5.876;2023-03-14T13:56:45;15.53;33.24
73112;HTU21D;61301;51.956;5.876;2023-03-14T13:59:25;15.51;33.73
73112;HTU21D;61301;51.956;5.876;2023-03-14T14:01:53;15.56;33.63
73112;HTU21D;61301;51.956;5.876;2023-03-14T14:04:24;15.67;33.96
73112;HTU21D;61301;51.956;5.876;2023-03-14T14:06:59;15.44;33.03
73112;HTU21D;61301;51.956;5.876;2023-03-14T14:09:31;15.16;32.42
73112;HTU21D;61301;51.956;5.876;2023-03-14T14:12:06;15.22;34.67
73112;HTU21D;61301;51.956;5.876;2023-03-14T14:14:38;15.45;33.68
73112;HTU21D;61301;51.956;5.876;2023-03-14T14:17:09;15.25;30.51
73112;HTU21D;61301;51.956;5.876;2023-03-14T14:19:37;15.36;29.64
73112;HTU21D;61301;51.956;5.876;2023-03-14T14:22:04;15.31;31.87
73112;HTU21D;61301;51.956;5.876;2023-03-14T14:24:32;15.44;31.07
73112;HTU21D;61301;51.956;5.876;2023-03-14T14:27:00;15.47;30.17
73112;HTU21D;61301;51.956;5.876;2023-03-14T14:29:32;15.44;32.37
73112;HTU21D;61301;51.956;5.876;2023-03-14T14:34:41;15.22;30.05
73112;HTU21D;61301;51.956;5.876;2023-03-14T14:37:41;14.91;30.33
73112;HTU21D;61301;51.956;5.876;2023-03-14T14:40:13;14.64;31.40
73112;HTU21D;61301;51.956;5.876;2023-03-14T14:42:41;14.59;32.12
73112;HTU21D;61301;51.956;5.876;2023-03-14T14:45:14;14.38;31.41
73112;HTU21D;61301;51.956;5.876;2023-03-14T14:53:02;14.40;33.84
73112;HTU21D;61301;51.956;5.876;2023-03-14T14:55:30;14.34;32.86
73112;HTU21D;61301;51.956;5.876;2023-03-14T14:57:57;14.29;33.77
73112;HTU21D;61301;51.956;5.876;2023-03-14T15:00:26;14.38;33.07
73112;HTU21D;61301;51.956;5.876;2023-03-14T15:03:00;14.21;32.47
73112;HTU21D;61301;51.956;5.876;2023-03-14T15:05:27;14.08;32.13
73112;HTU21D;61301;51.956;5.876;2023-03-14T15:07:56;14.14;32.83
73112;HTU21D;61301;51.956;5.876;2023-03-14T15:10:24;14.24;33.28
73112;HTU21D;61301;51.956;5.876;2023-03-14T15:12:51;14.27;33.76
73112;HTU21D;61301;51.956;5.876;2023-03-14T15:15:17;14.27;33.76
73112;HTU21D;61301;51.956;5.876;2023-03-14T15:17:44;14.22;32.72
73112;HTU21D;61301;51.956;5.876;2023-03-14T15:20:13;14.05;33.14
73112;HTU21D;61301;51.956;5.876;2023-03-14T15:22:39;14.06;34.65
73112;HTU21D;61301;51.956;5.876;2023-03-14T15:25:06;14.15;33.51
73112;HTU21D;61301;51.956;5.876;2023-03-14T15:27:33;14.14;33.47
73112;HTU21D;61301;51.956;5.876;2023-03-14T15:30:00;14.12;34.14
73112;HTU21D;61301;51.956;5.876;2023-03-14T15:32:26;13.99;32.57
73112;HTU21D;61301;51.956;5.876;2023-03-14T15:34:56;13.81;33.83
73112;HTU21D;61301;51.956;5.876;2023-03-14T15:37:22;13.74;33.81
73112;HTU21D;61301;51.956;5.876;2023-03-14T15:39:49;13.55;34.54
73112;HTU21D;61301;51.956;5.876;2023-03-14T15:42:15;13.49;34.82
73112;HTU21D;61301;51.956;5.876;2023-03-14T15:44:41;13.47;34.93
73112;HTU21D;61301;51.956;5.876;2023-03-14T15:47:09;13.45;33.65
73112;HTU21D;61301;51.956;5.876;2023-03-14T15:49:35;13.39;35.20
73112;HTU21D;61301;51.956;5.876;2023-03-14T15:52:02;13.47;36.40
73112;HTU21D;61301;51.956;5.876;2023-03-14T15:54:28;13.58;36.63
73112;HTU21D;61301;51.956;5.876;2023-03-14T15:56:55;13.68;36.43
73112;HTU21D;61301;51.956;5.876;2023-03-14T15:59:22;13.64;35.75
73112;HTU21D;61301;51.956;5.876;2023-03-14T16:01:48;13.45;33.34
73112;HTU21D;61301;51.956;5.876;2023-03-14T16:04:15;13.39;35.75
73112;HTU21D;61301;51.956;5.876;2023-03-14T16:06:41;13.39;36.28
73112;HTU21D;61301;51.956;5.876;2023-03-14T16:09:07;13.31;34.74
73112;HTU21D;61301;51.956;5.876;2023-03-14T16:11:33;13.10;35.08
73112;HTU21D;61301;51.956;5.876;2023-03-14T16:13:59;13.03;34.92
73112;HTU21D;61301;51.956;5.876;2023-03-14T16:16:25;12.94;35.56
73112;HTU21D;61301;51.956;5.876;2023-03-14T16:18:51;12.92;35.63
73112;HTU21D;61301;51.956;5.876;2023-03-14T16:21:18;12.79;33.29
73112;HTU21D;61301;51.956;5.876;2023-03-14T16:23:45;12.61;33.66
73112;HTU21D;61301;51.956;5.876;2023-03-14T16:26:14;12.58;33.77
73112;HTU21D;61301;51.956;5.876;2023-03-14T16:28:41;12.59;35.02
73112;HTU21D;61301;51.956;5.876;2023-03-14T16:31:10;12.71;33.90
73112;HTU21D;61301;51.956;5.876;2023-03-14T16:33:37;12.67;35.60
73112;HTU21D;61301;51.956;5.876;2023-03-14T16:36:05;12.71;35.33
73112;HTU21D;61301;51.956;5.876;2023-03-14T16:38:38;12.58;35.13
73112;HTU21D;61301;51.956;5.876;2023-03-14T16:43:32;12.34;35.54
73112;HTU21D;61301;51.956;5.876;2023-03-14T16:45:59;12.26;35.63
73112;HTU21D;61301;51.956;5.876;2023-03-14T16:48:26;12.29;36.34
73112;HTU21D;61301;51.956;5.876;2023-03-14T16:50:52;12.41;35.51
73112;HTU21D;61301;51.956;5.876;2023-03-14T16:53:19;12.41;34.76
73112;HTU21D;61301;51.956;5.876;2023-03-14T16:55:45;12.21;33.73
73112;HTU21D;61301;51.956;5.876;2023-03-14T16:58:12;12.12;33.47
73112;HTU21D;61301;51.956;5.876;2023-03-14T17:00:38;12.16;35.51
73112;HTU21D;61301;51.956;5.876;2023-03-14T17:03:04;12.18;35.44
73112;HTU21D;61301;51.956;5.876;2023-03-14T17:05:31;12.20;35.04
73112;HTU21D;61301;51.956;5.876;2023-03-14T17:07:57;12.25;35.27
73112;HTU21D;61301;51.956;5.876;2023-03-14T17:10:24;12.25;35.18